Time;durP1;ratioP1;P1;durP2;ratioP2;P2;SDS_P1;SDS_P2;PMS_P1;PMS_P2;Temp;Humidity;BMP_temperature;BMP_pressure;BME280_temperature;BME280_humidity;BME280_pressure;Samples;Min_cycle;Max_cycle;Signal;HPM_P1;HPM_P2
2023/02/19 00:00:06;;;;;;;19.52;3.28;;;9.90;99.90;;;;;;4993742;28;20105;-62
2023/02/19 00:02:38;;;;;;;21.25;3.70;;;9.80;99.90;;;;;;4993982;28;20046;-62
2023/02/19 00:05:05;;;;;;;18.25;3.78;;;9.80;99.90;;;;;;4993975;28;20552;-61
2023/02/19 00:07:31;;;;;;;23.58;3.78;;;9.80;99.90;;;;;;4994638;28;20039;-60
2023/02/19 00:09:58;;;;;;;20.17;3.80;;;9.80;99.90;;;;;;4994131;28;20540;-60
2023/02/19 00:12:25;;;;;;;17.85;3.40;;;9.70;99.90;;;;;;4993573;28;20050;-62
2023/02/19 00:14:53;;;;;;;17.77;3.88;;;9.70;99.90;;;;;;4980201;28;20042;-62
2023/02/19 00:17:20;;;;;;;17.95;3.10;;;9.70;99.90;;;;;;4982785;28;20039;-59
2023/02/19 00:19:47;;;;;;;20.42;4.03;;;9.70;99.90;;;;;;4977071;28;20430;-61
2023/02/19 00:22:14;;;;;;;17.30;3.58;;;9.70;99.90;;;;;;4974584;28;20043;-61
2023/02/19 00:24:40;;;;;;;13.57;3.40;;;9.60;99.90;;;;;;4976226;28;20042;-59
2023/02/19 00:27:07;;;;;;;12.90;2.85;;;9.60;99.90;;;;;;4994253;28;20046;-60
2023/02/19 00:29:34;;;;;;;17.10;3.20;;;9.60;99.90;;;;;;4993018;28;20054;-57
2023/02/19 00:32:00;;;;;;;24.95;4.07;;;9.60;99.90;;;;;;4994432;28;20066;-61
2023/02/19 00:34:28;;;;;;;17.55;3.78;;;9.60;99.90;;;;;;4997031;28;20046;-60
2023/02/19 00:36:55;;;;;;;17.63;3.47;;;9.60;99.90;;;;;;4998166;28;20124;-61
2023/02/19 00:39:22;;;;;;;21.95;3.97;;;9.60;99.90;;;;;;4998049;28;20044;-56
2023/02/19 00:41:48;;;;;;;15.10;3.00;;;9.60;99.90;;;;;;4997035;28;20081;-62
2023/02/19 00:44:15;;;;;;;17.70;3.78;;;9.70;99.90;;;;;;4997870;28;20046;-63
2023/02/19 00:46:42;;;;;;;19.77;3.63;;;9.80;99.90;;;;;;4996755;28;20392;-59
2023/02/19 00:49:09;;;;;;;18.08;3.90;;;9.70;99.90;;;;;;4996386;28;20524;-60
2023/02/19 00:51:36;;;;;;;16.45;3.42;;;9.70;99.90;;;;;;4997750;28;20049;-60
2023/02/19 00:54:03;;;;;;;18.35;3.53;;;9.70;99.90;;;;;;4996130;28;20074;-62
2023/02/19 00:56:29;;;;;;;17.00;3.60;;;9.70;99.90;;;;;;4997539;28;20050;-60
2023/02/19 00:58:56;;;;;;;17.95;3.67;;;9.60;99.90;;;;;;4996283;28;20046;-58
2023/02/19 01:01:23;;;;;;;16.33;3.35;;;9.60;99.90;;;;;;4996964;28;20137;-57
2023/02/19 01:03:50;;;;;;;21.65;4.50;;;9.60;99.90;;;;;;4996026;28;20081;-58
2023/02/19 01:06:17;;;;;;;19.75;3.78;;;9.60;99.90;;;;;;4996236;28;20042;-58
2023/02/19 01:08:44;;;;;;;18.45;3.05;;;9.50;99.90;;;;;;4980157;28;20129;-58
2023/02/19 01:11:11;;;;;;;15.85;4.13;;;9.50;99.90;;;;;;4996347;28;20050;-55
2023/02/19 01:13:38;;;;;;;22.50;3.92;;;9.50;99.90;;;;;;4997329;28;20073;-61
2023/02/19 01:16:04;;;;;;;19.45;3.88;;;9.40;99.90;;;;;;4995752;28;20058;-56
2023/02/19 01:18:31;;;;;;;18.95;4.28;;;9.40;99.90;;;;;;4997234;28;20077;-55
2023/02/19 01:20:58;;;;;;;16.45;3.80;;;9.40;99.90;;;;;;4997073;28;20093;-58
2023/02/19 01:23:25;;;;;;;13.52;3.38;;;9.40;99.90;;;;;;4995526;28;20057;-57
2023/02/19 01:25:52;;;;;;;22.38;5.32;;;9.40;99.90;;;;;;4997258;28;20100;-59
2023/02/19 01:28:18;;;;;;;17.30;3.70;;;9.40;99.90;;;;;;4995947;28;20478;-59
2023/02/19 01:30:45;;;;;;;16.98;3.95;;;9.40;99.90;;;;;;4995844;28;20489;-59
2023/02/19 01:33:12;;;;;;;21.73;4.40;;;9.40;99.90;;;;;;4996004;28;20469;-59
2023/02/19 01:35:39;;;;;;;20.50;4.10;;;9.40;99.90;;;;;;4997287;28;20046;-61
2023/02/19 01:38:07;;;;;;;22.23;4.07;;;9.50;99.90;;;;;;4997148;28;20046;-62
2023/02/19 01:40:33;;;;;;;15.52;4.18;;;9.50;99.90;;;;;;4996827;28;20046;-60
2023/02/19 01:43:02;;;;;;;22.77;4.55;;;9.60;99.90;;;;;;4994857;28;20042;-61
2023/02/19 01:45:29;;;;;;;20.17;3.60;;;9.60;99.90;;;;;;4995666;28;20046;-59
2023/02/19 01:47:56;;;;;;;17.35;4.20;;;9.60;99.90;;;;;;4995478;28;20182;-60
2023/02/19 01:50:22;;;;;;;17.92;3.92;;;9.60;99.90;;;;;;4995472;28;20046;-60
2023/02/19 01:52:49;;;;;;;17.73;3.80;;;9.70;99.90;;;;;;4996633;28;20073;-59
2023/02/19 01:55:16;;;;;;;17.55;3.35;;;9.70;99.90;;;;;;4996983;28;20089;-61
2023/02/19 01:57:43;;;;;;;19.05;3.53;;;9.70;99.90;;;;;;4996675;28;20445;-60
2023/02/19 02:00:10;;;;;;;18.67;4.68;;;9.70;99.90;;;;;;4996700;28;20066;-62
2023/02/19 02:02:39;;;;;;;15.50;3.65;;;9.70;99.90;;;;;;4995076;28;20054;-60
2023/02/19 02:05:06;;;;;;;15.82;3.67;;;9.70;99.90;;;;;;4995235;28;20042;-58
2023/02/19 02:10:20;;;;;;;17.35;3.65;;;9.60;99.90;;;;;;4996391;28;20057;-62
2023/02/19 02:12:47;;;;;;;15.75;4.25;;;9.60;99.90;;;;;;4994757;28;20038;-62
2023/02/19 02:15:15;;;;;;;18.50;4.07;;;9.60;99.90;;;;;;4994880;28;20046;-60
2023/02/19 02:17:41;;;;;;;16.77;3.63;;;9.50;99.90;;;;;;4995895;28;20440;-61
2023/02/19 02:20:08;;;;;;;19.25;3.95;;;9.40;99.90;;;;;;4996109;28;20453;-56
2023/02/19 02:22:35;;;;;;;20.83;4.65;;;9.40;99.90;;;;;;4996034;28;20045;-60
2023/02/19 02:25:02;;;;;;;16.45;3.67;;;9.30;99.90;;;;;;4995700;28;20100;-62
2023/02/19 02:27:29;;;;;;;20.73;4.03;;;9.20;99.90;;;;;;4994879;28;20052;-59
2023/02/19 02:29:55;;;;;;;13.52;4.25;;;9.20;99.90;;;;;;4994951;28;20070;-63
2023/02/19 02:32:22;;;;;;;17.30;4.60;;;9.10;99.90;;;;;;4994359;28;20097;-60
2023/02/19 02:34:49;;;;;;;15.25;3.85;;;9.10;99.90;;;;;;4994927;28;20038;-61
2023/02/19 02:37:16;;;;;;;20.92;4.15;;;9.10;99.90;;;;;;4994930;28;20049;-61
2023/02/19 02:39:42;;;;;;;22.35;5.35;;;9.00;99.90;;;;;;4978599;28;20039;-61
2023/02/19 02:42:28;;;;;;;21.55;4.40;;;9.00;99.90;;;;;;4994479;28;20058;-60
2023/02/19 02:47:47;;;;;;;19.20;3.88;;;9.00;99.90;;;;;;4994610;28;20453;-58
2023/02/19 02:50:13;;;;;;;18.77;4.10;;;8.90;99.90;;;;;;4995807;28;20425;-59
2023/02/19 02:55:27;;;;;;;17.63;3.70;;;8.80;99.90;;;;;;4993500;28;20042;-61
2023/02/19 02:57:54;;;;;;;14.15;3.95;;;8.80;99.90;;;;;;4995437;28;20050;-61
2023/02/19 03:00:20;;;;;;;15.80;3.95;;;8.80;99.90;;;;;;4993699;28;20134;-59
2023/02/19 03:02:47;;;;;;;14.23;3.35;;;8.80;99.90;;;;;;4993974;28;20057;-62
2023/02/19 03:08:00;;;;;;;18.10;4.13;;;8.70;99.90;;;;;;4994217;28;20051;-60
2023/02/19 03:10:26;;;;;;;13.48;3.25;;;8.70;99.90;;;;;;4994827;28;20078;-62
2023/02/19 03:21:10;;;;;;;16.25;4.35;;;8.70;99.90;;;;;;4995346;28;20050;-62
2023/02/19 03:26:24;;;;;;;14.40;3.50;;;8.80;99.90;;;;;;4994264;28;20050;-62
2023/02/19 03:31:39;;;;;;;17.50;4.32;;;8.80;99.90;;;;;;4993551;28;20046;-61
2023/02/19 03:34:06;;;;;;;16.13;4.10;;;8.80;99.90;;;;;;4993262;28;20038;-61
2023/02/19 03:36:33;;;;;;;15.30;3.83;;;8.80;99.90;;;;;;4993215;28;20039;-62
2023/02/19 03:39:00;;;;;;;14.05;3.33;;;8.80;99.90;;;;;;4993697;28;20042;-60
2023/02/19 03:41:28;;;;;;;13.38;3.72;;;8.80;99.90;;;;;;4993801;28;20042;-62
2023/02/19 03:43:56;;;;;;;14.73;3.90;;;8.90;99.90;;;;;;4994649;28;20038;-61
2023/02/19 03:46:23;;;;;;;12.45;3.22;;;8.90;99.90;;;;;;4993699;28;20043;-63
2023/02/19 03:48:50;;;;;;;14.77;3.40;;;8.90;99.90;;;;;;4993286;28;20556;-58
2023/02/19 03:51:17;;;;;;;14.57;3.40;;;8.90;99.90;;;;;;4994984;28;20042;-60
2023/02/19 03:53:45;;;;;;;15.90;3.30;;;8.90;99.90;;;;;;4993251;28;20137;-60
2023/02/19 03:56:12;;;;;;;15.55;2.90;;;8.80;99.90;;;;;;4993442;28;20054;-61
2023/02/19 03:58:39;;;;;;;15.00;4.13;;;8.80;99.90;;;;;;4993144;28;20046;-58
2023/02/19 04:01:07;;;;;;;15.10;3.42;;;8.80;99.90;;;;;;4992987;28;20564;-55
2023/02/19 04:03:34;;;;;;;13.02;3.58;;;8.70;99.90;;;;;;4994348;28;20039;-62
2023/02/19 04:06:00;;;;;;;15.02;3.20;;;8.70;99.90;;;;;;4992983;28;20046;-60
2023/02/19 04:08:27;;;;;;;13.43;3.30;;;8.70;99.90;;;;;;4993420;28;20351;-60
2023/02/19 04:11:00;;;;;;;13.60;3.22;;;8.70;99.90;;;;;;4993216;28;20057;-55
2023/02/19 04:13:30;;;;;;;10.60;2.88;;;8.60;99.90;;;;;;4993433;28;20057;-58
2023/02/19 04:15:57;;;;;;;11.43;3.22;;;8.60;99.90;;;;;;4994811;28;20421;-60
2023/02/19 04:18:24;;;;;;;18.17;3.53;;;8.50;99.90;;;;;;4994468;28;20162;-63
2023/02/19 04:20:50;;;;;;;13.20;3.35;;;8.50;99.90;;;;;;4994278;28;20042;-59
2023/02/19 04:23:17;;;;;;;15.73;2.97;;;8.50;99.90;;;;;;4994172;28;20042;-62
2023/02/19 04:25:44;;;;;;;17.35;3.30;;;8.50;99.90;;;;;;4994351;28;20034;-61
2023/02/19 04:28:10;;;;;;;13.13;3.10;;;8.50;99.90;;;;;;4994179;28;20046;-62
2023/02/19 04:30:37;;;;;;;14.20;3.35;;;8.50;99.90;;;;;;4994280;28;20050;-59
2023/02/19 04:33:04;;;;;;;11.40;3.10;;;8.60;99.90;;;;;;4992785;28;20042;-61
2023/02/19 04:35:31;;;;;;;9.57;2.92;;;8.60;99.90;;;;;;4994428;28;20050;-60
2023/02/19 04:37:57;;;;;;;11.90;2.97;;;8.70;99.90;;;;;;4994127;28;20047;-62
2023/02/19 04:40:24;;;;;;;13.27;3.22;;;8.70;99.90;;;;;;4994283;28;20085;-62
2023/02/19 04:42:51;;;;;;;13.15;3.08;;;8.80;99.90;;;;;;4994190;28;20038;-59
2023/02/19 04:45:18;;;;;;;11.60;3.03;;;8.80;99.90;;;;;;4993832;28;20039;-62
2023/02/19 04:47:44;;;;;;;11.25;3.42;;;8.80;99.90;;;;;;4993591;28;20053;-62
2023/02/19 04:50:11;;;;;;;13.90;2.78;;;8.90;99.90;;;;;;4994170;28;20487;-61
2023/02/19 04:52:38;;;;;;;19.60;3.53;;;8.90;99.90;;;;;;4994005;28;20058;-60
2023/02/19 04:55:05;;;;;;;10.85;2.60;;;8.90;99.90;;;;;;4992552;28;20047;-60
2023/02/19 04:57:31;;;;;;;10.43;2.30;;;8.90;99.90;;;;;;4994175;28;20050;-60
2023/02/19 04:59:58;;;;;;;10.85;2.30;;;8.90;99.90;;;;;;4992699;28;20050;-60
2023/02/19 05:02:25;;;;;;;10.85;2.58;;;9.00;99.90;;;;;;4993944;28;20109;-61
2023/02/19 05:04:51;;;;;;;11.55;2.70;;;9.00;99.90;;;;;;4994091;28;20081;-59
2023/02/19 05:07:18;;;;;;;9.38;2.17;;;9.00;99.90;;;;;;4992474;28;20453;-58
2023/02/19 05:09:45;;;;;;;16.15;3.15;;;9.00;99.90;;;;;;4994089;28;20038;-62
2023/02/19 05:12:12;;;;;;;11.57;2.30;;;9.00;99.90;;;;;;4994027;28;20413;-63
2023/02/19 05:14:38;;;;;;;9.77;2.10;;;9.10;99.90;;;;;;4994125;28;20104;-62
2023/02/19 05:17:05;;;;;;;11.60;2.63;;;9.10;99.90;;;;;;4993873;28;20038;-62
2023/02/19 05:19:32;;;;;;;11.20;2.72;;;9.10;99.90;;;;;;4996356;28;20057;-61
2023/02/19 05:21:58;;;;;;;9.88;2.28;;;9.10;99.90;;;;;;4997225;28;20092;-61
2023/02/19 05:24:26;;;;;;;10.25;2.33;;;9.10;99.90;;;;;;4997359;28;20035;-57
2023/02/19 05:26:53;;;;;;;14.50;2.33;;;9.10;99.90;;;;;;4997475;28;20042;-55
2023/02/19 05:29:19;;;;;;;11.13;2.60;;;9.10;99.90;;;;;;4996815;28;20042;-58
2023/02/19 05:31:47;;;;;;;10.00;2.30;;;9.10;99.90;;;;;;4997077;28;20050;-57
2023/02/19 05:34:14;;;;;;;10.57;2.15;;;9.10;99.90;;;;;;4996985;28;20047;-60
2023/02/19 05:36:41;;;;;;;10.15;2.30;;;9.00;99.90;;;;;;4995712;28;20046;-62
2023/02/19 05:39:08;;;;;;;12.27;2.15;;;9.00;99.90;;;;;;4996719;28;20046;-62
2023/02/19 05:41:35;;;;;;;9.93;2.53;;;8.90;99.90;;;;;;4996935;28;20089;-61
2023/02/19 05:44:01;;;;;;;9.45;2.50;;;8.80;99.90;;;;;;4995673;28;20050;-62
2023/02/19 05:46:28;;;;;;;8.63;2.00;;;8.80;99.90;;;;;;4997270;28;20047;-61
2023/02/19 05:48:56;;;;;;;8.32;2.05;;;8.70;99.90;;;;;;4997000;28;20042;-58
2023/02/19 05:51:23;;;;;;;11.18;2.22;;;8.70;99.90;;;;;;4997087;28;20042;-61
2023/02/19 05:53:50;;;;;;;8.15;2.22;;;8.60;99.90;;;;;;4996660;28;20486;-58
2023/02/19 05:56:17;;;;;;;10.15;2.20;;;8.60;99.90;;;;;;4996851;28;20058;-60
2023/02/19 05:58:43;;;;;;;9.00;1.98;;;8.60;99.90;;;;;;4996430;28;20101;-61
2023/02/19 06:01:10;;;;;;;10.18;2.55;;;8.60;99.90;;;;;;4996347;28;20062;-60
2023/02/19 06:03:37;;;;;;;11.95;2.28;;;8.50;99.90;;;;;;4996539;28;20050;-59
2023/02/19 06:06:04;;;;;;;7.97;2.05;;;8.50;99.90;;;;;;4996681;28;20121;-61
2023/02/19 06:08:31;;;;;;;11.98;1.83;;;8.50;99.90;;;;;;4996397;28;20046;-57
2023/02/19 06:10:58;;;;;;;11.00;2.10;;;8.40;99.90;;;;;;4995901;28;20073;-63
2023/02/19 06:13:24;;;;;;;9.18;1.90;;;8.40;99.90;;;;;;4995961;28;20039;-60
2023/02/19 06:15:51;;;;;;;8.38;2.10;;;8.40;99.90;;;;;;4996228;28;20042;-59
2023/02/19 06:18:18;;;;;;;10.77;2.30;;;8.40;99.90;;;;;;4996695;28;20385;-58
2023/02/19 06:20:45;;;;;;;10.95;2.15;;;8.40;99.90;;;;;;4996504;28;20050;-61
2023/02/19 06:23:11;;;;;;;8.68;1.88;;;8.30;99.90;;;;;;4996014;28;20052;-59
2023/02/19 06:25:38;;;;;;;12.15;2.63;;;8.30;99.90;;;;;;4996123;28;20112;-61
2023/02/19 06:28:05;;;;;;;9.00;2.28;;;8.30;99.90;;;;;;4995932;28;20042;-56
2023/02/19 06:30:32;;;;;;;14.02;2.95;;;8.30;99.90;;;;;;4996112;28;20100;-57
2023/02/19 06:32:59;;;;;;;9.07;2.10;;;8.20;99.90;;;;;;4995958;28;20038;-57
2023/02/19 06:35:25;;;;;;;9.95;2.28;;;8.20;99.90;;;;;;4995181;28;20374;-62
2023/02/19 06:37:52;;;;;;;11.15;2.28;;;8.20;99.90;;;;;;4996052;28;20046;-61
2023/02/19 06:40:19;;;;;;;11.38;2.28;;;8.20;99.90;;;;;;4995653;28;20418;-61
2023/02/19 06:42:46;;;;;;;10.75;2.40;;;8.10;99.90;;;;;;4995612;28;20046;-61
2023/02/19 06:45:14;;;;;;;11.75;2.28;;;8.10;99.90;;;;;;4995974;28;20046;-60
2023/02/19 06:47:41;;;;;;;8.45;2.70;;;8.10;99.90;;;;;;4995778;28;20038;-62
2023/02/19 06:50:07;;;;;;;7.38;2.05;;;8.10;99.90;;;;;;4995843;28;20105;-58
2023/02/19 06:52:34;;;;;;;8.68;2.40;;;8.10;99.90;;;;;;4995469;28;20085;-60
2023/02/19 06:55:01;;;;;;;11.65;2.10;;;8.00;99.90;;;;;;4995843;28;20105;-61
2023/02/19 06:57:27;;;;;;;10.68;2.78;;;8.00;99.90;;;;;;4995791;28;20049;-60
2023/02/19 06:59:54;;;;;;;12.20;2.40;;;8.00;99.90;;;;;;4994527;28;20081;-58
2023/02/19 07:02:21;;;;;;;8.85;2.00;;;8.00;99.90;;;;;;4993875;28;20097;-60
2023/02/19 07:04:48;;;;;;;9.85;2.38;;;8.00;99.90;;;;;;4995680;28;20046;-56
2023/02/19 07:07:14;;;;;;;11.50;1.92;;;8.00;99.90;;;;;;4995335;28;20042;-57
2023/02/19 07:09:41;;;;;;;9.52;2.00;;;8.00;99.90;;;;;;4995172;28;20046;-58
2023/02/19 07:12:08;;;;;;;9.30;2.03;;;8.00;99.90;;;;;;4995274;28;20053;-58
2023/02/19 07:14:35;;;;;;;8.70;2.25;;;8.00;99.90;;;;;;4995151;28;20051;-59
2023/02/19 07:17:02;;;;;;;6.68;1.77;;;8.00;99.90;;;;;;4995340;28;20050;-61
2023/02/19 07:19:29;;;;;;;10.25;2.33;;;7.90;99.90;;;;;;4995144;28;20046;-58
2023/02/19 07:21:55;;;;;;;8.95;2.40;;;7.90;99.90;;;;;;4995132;28;20064;-61
2023/02/19 07:24:22;;;;;;;12.02;2.33;;;7.90;99.90;;;;;;4995218;28;20077;-63
2023/02/19 07:26:49;;;;;;;8.45;2.05;;;7.90;99.90;;;;;;4993363;28;20101;-60
2023/02/19 07:29:16;;;;;;;11.20;2.08;;;7.90;99.90;;;;;;4994998;28;20049;-60
2023/02/19 07:31:43;;;;;;;11.68;1.95;;;8.00;99.90;;;;;;4994702;28;20046;-60
2023/02/19 07:34:09;;;;;;;9.57;2.15;;;8.00;99.90;;;;;;4994754;28;20050;-55
2023/02/19 07:36:36;;;;;;;6.60;2.40;;;8.10;99.90;;;;;;4994873;28;20070;-60
2023/02/19 07:39:03;;;;;;;10.77;2.20;;;8.00;99.90;;;;;;4994851;28;20100;-62
2023/02/19 07:41:30;;;;;;;9.95;2.40;;;8.10;99.90;;;;;;4994654;28;20043;-61
2023/02/19 07:43:57;;;;;;;11.18;2.45;;;8.10;99.90;;;;;;4993288;28;20050;-61
2023/02/19 07:46:23;;;;;;;8.55;1.65;;;8.10;99.90;;;;;;4994718;28;20046;-62
2023/02/19 07:48:50;;;;;;;13.68;2.20;;;8.10;99.90;;;;;;4994872;28;20042;-58
2023/02/19 07:51:17;;;;;;;12.15;2.70;;;8.10;99.90;;;;;;4994814;28;20437;-63
2023/02/19 07:53:44;;;;;;;9.95;1.90;;;8.10;99.90;;;;;;4993477;28;20386;-62
2023/02/19 07:56:11;;;;;;;8.82;1.90;;;8.20;99.90;;;;;;4993470;28;20076;-57
2023/02/19 07:58:38;;;;;;;9.23;2.03;;;8.20;99.90;;;;;;4994646;28;20105;-59
2023/02/19 08:01:04;;;;;;;10.60;2.30;;;8.20;99.90;;;;;;4994222;28;20518;-60
2023/02/19 08:03:31;;;;;;;10.70;2.50;;;8.20;99.90;;;;;;4994238;28;20053;-59
2023/02/19 08:05:58;;;;;;;13.32;2.20;;;8.20;99.90;;;;;;4994488;28;20050;-59
2023/02/19 08:08:25;;;;;;;9.75;2.20;;;8.20;99.90;;;;;;4994698;28;20093;-59
2023/02/19 08:13:37;;;;;;;10.43;2.00;;;8.30;99.90;;;;;;4993378;28;20105;-57
2023/02/19 08:16:04;;;;;;;9.18;1.73;;;8.30;99.90;;;;;;4994262;28;20049;-54
2023/02/19 08:18:44;;;;;;;8.57;1.90;;;8.30;99.90;;;;;;4994653;28;20393;-59
2023/02/19 08:21:10;;;;;;;8.10;2.00;;;8.40;99.90;;;;;;4993216;28;20054;-61
2023/02/19 08:23:37;;;;;;;8.63;2.05;;;8.40;99.90;;;;;;4993933;28;20041;-56
2023/02/19 08:26:04;;;;;;;6.20;2.20;;;8.40;99.90;;;;;;4994259;28;20038;-56
2023/02/19 08:28:31;;;;;;;11.77;2.25;;;8.40;99.90;;;;;;4994195;28;20050;-59
2023/02/19 08:30:58;;;;;;;10.88;2.35;;;8.40;99.90;;;;;;4994290;28;20207;-59
2023/02/19 08:33:24;;;;;;;10.32;1.67;;;8.40;99.90;;;;;;4993930;28;20477;-58
2023/02/19 08:35:51;;;;;;;9.60;2.35;;;8.40;99.90;;;;;;4994200;28;20097;-56
2023/02/19 08:38:18;;;;;;;7.35;1.63;;;8.40;99.90;;;;;;4993944;28;20069;-61
2023/02/19 08:40:44;;;;;;;8.50;2.40;;;8.40;99.90;;;;;;4994104;28;20389;-61
2023/02/19 08:43:11;;;;;;;10.18;2.03;;;8.50;99.90;;;;;;4993500;28;20129;-58
2023/02/19 08:45:38;;;;;;;7.88;2.00;;;8.50;99.90;;;;;;4994029;28;20066;-61
2023/02/19 08:48:05;;;;;;;6.38;2.15;;;8.50;99.90;;;;;;4994094;28;20042;-61
2023/02/19 08:50:31;;;;;;;7.35;2.00;;;8.50;99.90;;;;;;4994067;28;20042;-57
2023/02/19 08:52:58;;;;;;;9.77;2.40;;;8.50;99.90;;;;;;4994146;28;20042;-62
2023/02/19 08:55:25;;;;;;;9.73;1.85;;;8.50;99.90;;;;;;4997762;28;20046;-59
2023/02/19 08:57:52;;;;;;;8.05;1.77;;;8.50;99.90;;;;;;4997773;28;20042;-59
2023/02/19 09:00:20;;;;;;;9.40;2.05;;;8.50;99.90;;;;;;4997499;28;20054;-58
2023/02/19 09:02:46;;;;;;;6.55;2.03;;;8.50;99.90;;;;;;4980029;28;20109;-57
2023/02/19 09:05:13;;;;;;;7.80;2.20;;;8.50;99.90;;;;;;4997798;28;20038;-58
2023/02/19 09:07:40;;;;;;;8.27;2.15;;;8.50;99.90;;;;;;4997507;28;20073;-60
2023/02/19 09:10:07;;;;;;;7.80;2.20;;;8.50;99.90;;;;;;4997415;28;20045;-62
2023/02/19 09:12:33;;;;;;;13.48;2.38;;;8.50;99.90;;;;;;4997409;28;20104;-51
2023/02/19 09:15:00;;;;;;;8.10;2.65;;;8.50;99.90;;;;;;4997555;28;20046;-56
2023/02/19 09:17:27;;;;;;;7.60;1.83;;;8.50;99.90;;;;;;4996338;28;20054;-56
2023/02/19 09:19:53;;;;;;;9.95;2.33;;;8.50;99.90;;;;;;4997635;28;20050;-59
2023/02/19 09:22:20;;;;;;;14.65;2.83;;;8.50;99.90;;;;;;4997165;28;20121;-58
2023/02/19 09:24:47;;;;;;;8.25;2.17;;;8.50;99.90;;;;;;4997256;28;20042;-59
2023/02/19 09:27:14;;;;;;;8.45;2.42;;;8.60;99.90;;;;;;4997277;28;20038;-60
2023/02/19 09:29:40;;;;;;;11.85;2.30;;;8.60;99.90;;;;;;4997428;28;20421;-57
2023/02/19 09:32:07;;;;;;;7.45;2.53;;;8.60;99.90;;;;;;4996863;28;20051;-60
2023/02/19 09:34:34;;;;;;;6.22;2.00;;;8.70;99.90;;;;;;4996658;28;20133;-62
2023/02/19 09:37:00;;;;;;;8.30;2.00;;;8.70;99.90;;;;;;4997326;28;20181;-61
2023/02/19 09:39:27;;;;;;;6.95;2.45;;;8.70;99.90;;;;;;4997074;28;20096;-61
2023/02/19 09:41:54;;;;;;;9.60;2.17;;;8.80;99.90;;;;;;4997576;28;20397;-57
2023/02/19 09:44:21;;;;;;;7.05;1.85;;;8.90;99.90;;;;;;4996728;28;20034;-60
2023/02/19 09:46:47;;;;;;;6.70;2.20;;;9.00;99.90;;;;;;4996713;28;20046;-60
2023/02/19 09:49:14;;;;;;;3.85;1.40;;;9.10;99.90;;;;;;4995306;28;20042;-60
2023/02/19 09:51:41;;;;;;;5.13;1.48;;;9.10;99.90;;;;;;4996499;28;20132;-60
2023/02/19 09:54:08;;;;;;;5.78;1.52;;;9.10;99.90;;;;;;4996500;28;20113;-59
2023/02/19 09:56:34;;;;;;;5.20;1.73;;;9.20;99.90;;;;;;4996541;28;20038;-61
2023/02/19 09:59:01;;;;;;;5.28;1.52;;;9.20;99.90;;;;;;4996269;28;20097;-61
2023/02/19 10:01:28;;;;;;;8.15;1.75;;;9.30;99.90;;;;;;4996328;28;20052;-61
2023/02/19 10:03:56;;;;;;;5.32;1.40;;;9.40;99.90;;;;;;4996234;28;20101;-62
2023/02/19 10:06:23;;;;;;;9.20;1.63;;;9.40;99.90;;;;;;4996447;28;20056;-60
2023/02/19 10:08:50;;;;;;;5.55;1.38;;;9.40;99.90;;;;;;4995907;28;20066;-64
2023/02/19 10:11:17;;;;;;;6.18;1.50;;;9.50;99.90;;;;;;4995121;28;20039;-62
2023/02/19 10:13:44;;;;;;;4.07;1.30;;;9.50;99.90;;;;;;4996056;28;20038;-62
2023/02/19 10:16:13;;;;;;;5.93;1.35;;;9.60;99.90;;;;;;4996229;28;20042;-61
2023/02/19 10:18:41;;;;;;;7.70;1.42;;;9.60;99.90;;;;;;4996252;28;20065;-62
2023/02/19 10:21:07;;;;;;;6.25;1.55;;;9.60;99.90;;;;;;4996560;28;20038;-62
2023/02/19 10:23:35;;;;;;;6.47;1.38;;;9.60;99.90;;;;;;4995906;28;20114;-62
2023/02/19 10:26:01;;;;;;;3.75;1.35;;;9.60;99.90;;;;;;4995733;28;20113;-58
2023/02/19 10:28:28;;;;;;;5.13;1.45;;;9.70;99.90;;;;;;4996064;28;20038;-62
2023/02/19 10:30:55;;;;;;;7.15;1.63;;;9.70;99.90;;;;;;4995791;28;20461;-57
2023/02/19 10:33:22;;;;;;;6.93;1.60;;;9.80;99.90;;;;;;4986932;28;20094;-60
2023/02/19 10:35:48;;;;;;;5.80;1.30;;;9.80;99.90;;;;;;4984414;28;20077;-60
2023/02/19 10:38:15;;;;;;;5.25;1.40;;;9.80;99.90;;;;;;4977378;28;20117;-60
2023/02/19 10:40:42;;;;;;;4.32;1.30;;;9.80;99.90;;;;;;4978224;28;20081;-60
2023/02/19 10:43:09;;;;;;;6.13;1.23;;;9.70;99.90;;;;;;4984140;28;20085;-60
2023/02/19 10:45:35;;;;;;;3.10;1.20;;;9.70;99.90;;;;;;4985742;28;20069;-61
2023/02/19 10:48:02;;;;;;;7.07;1.50;;;9.70;99.90;;;;;;4980314;28;20043;-57
2023/02/19 10:50:29;;;;;;;4.65;1.40;;;9.70;99.90;;;;;;4995486;28;20513;-61
2023/02/19 10:52:55;;;;;;;4.28;1.30;;;9.70;99.90;;;;;;4995378;28;20062;-60
2023/02/19 10:55:22;;;;;;;8.05;1.40;;;9.80;99.90;;;;;;4994092;28;20500;-63
2023/02/19 10:57:49;;;;;;;5.40;1.25;;;9.90;99.90;;;;;;4995234;28;20113;-60
2023/02/19 11:00:16;;;;;;;8.32;1.48;;;10.00;99.90;;;;;;4995559;28;20046;-62
2023/02/19 11:02:42;;;;;;;5.25;1.42;;;10.10;99.90;;;;;;4994650;28;20053;-63
2023/02/19 11:05:15;;;;;;;5.97;1.30;;;10.10;99.90;;;;;;4995188;28;20046;-56
2023/02/19 11:07:42;;;;;;;5.20;1.33;;;10.20;99.90;;;;;;4995097;28;20462;-58
2023/02/19 11:10:09;;;;;;;6.05;1.30;;;10.30;99.90;;;;;;4995318;28;20066;-60
2023/02/19 11:12:36;;;;;;;6.15;1.25;;;10.30;99.90;;;;;;4993504;28;20592;-62
2023/02/19 11:15:02;;;;;;;4.78;1.50;;;10.40;99.90;;;;;;4995067;28;20046;-60
2023/02/19 11:17:29;;;;;;;5.72;1.63;;;10.40;99.90;;;;;;4994587;28;20112;-62
2023/02/19 11:19:56;;;;;;;6.20;1.63;;;10.50;99.90;;;;;;4995212;28;20423;-61
2023/02/19 11:22:23;;;;;;;3.85;1.27;;;10.60;99.90;;;;;;4994720;28;20061;-58
2023/02/19 11:24:49;;;;;;;11.50;1.65;;;10.60;99.90;;;;;;4995217;28;20525;-59
2023/02/19 11:27:20;;;;;;;3.80;1.23;;;10.60;99.90;;;;;;4995180;28;20042;-60
2023/02/19 11:29:47;;;;;;;6.65;1.40;;;10.50;99.90;;;;;;4993528;28;20421;-59
2023/02/19 11:32:13;;;;;;;4.60;1.50;;;10.50;99.90;;;;;;4994899;28;20046;-60
2023/02/19 11:34:40;;;;;;;5.82;1.52;;;10.50;99.90;;;;;;4994714;28;20045;-62
2023/02/19 11:37:07;;;;;;;5.18;1.20;;;10.40;99.90;;;;;;4994682;28;20125;-60
2023/02/19 11:39:34;;;;;;;6.47;1.30;;;10.40;99.90;;;;;;4994781;28;20065;-62
2023/02/19 11:42:01;;;;;;;9.13;1.38;;;10.40;99.90;;;;;;4994750;28;20476;-60
2023/02/19 11:44:29;;;;;;;4.75;1.10;;;10.40;99.90;;;;;;4993299;28;20050;-61
2023/02/19 11:46:55;;;;;;;5.55;1.33;;;10.40;99.90;;;;;;4993359;28;20038;-61
2023/02/19 11:49:22;;;;;;;6.10;1.30;;;10.40;99.90;;;;;;4994765;28;20046;-63
2023/02/19 11:51:49;;;;;;;6.60;1.50;;;10.50;99.90;;;;;;4994668;28;20050;-59
2023/02/19 11:54:18;;;;;;;4.93;1.20;;;10.60;99.90;;;;;;4994544;28;20046;-61
2023/02/19 11:56:45;;;;;;;7.28;1.23;;;10.60;99.90;;;;;;4994807;28;20104;-61
2023/02/19 11:59:12;;;;;;;4.05;1.20;;;10.70;99.90;;;;;;4994785;28;20564;-60
2023/02/19 12:01:38;;;;;;;6.82;1.50;;;10.70;99.90;;;;;;4993078;28;20060;-61
2023/02/19 12:04:05;;;;;;;6.32;1.13;;;10.70;99.90;;;;;;4992729;28;20034;-61
2023/02/19 12:06:32;;;;;;;5.85;1.30;;;10.80;99.90;;;;;;4994220;28;20053;-61
2023/02/19 12:08:58;;;;;;;6.10;1.15;;;10.80;99.90;;;;;;4994359;28;20442;-61
2023/02/19 12:11:25;;;;;;;5.15;0.90;;;10.90;99.90;;;;;;4994285;28;20046;-61
2023/02/19 12:13:52;;;;;;;2.95;1.00;;;10.90;99.90;;;;;;4994331;28;20058;-58
2023/02/19 12:16:19;;;;;;;3.45;1.02;;;10.90;99.90;;;;;;4994279;28;20065;-60
2023/02/19 12:18:45;;;;;;;3.22;0.93;;;11.00;99.90;;;;;;4992972;28;20493;-61
2023/02/19 12:21:12;;;;;;;3.72;0.90;;;11.00;99.90;;;;;;4992575;28;20096;-58
2023/02/19 12:23:39;;;;;;;4.63;1.10;;;11.10;99.90;;;;;;4992381;28;20081;-59
2023/02/19 12:26:05;;;;;;;5.55;1.20;;;11.10;99.90;;;;;;4991908;28;20069;-60
2023/02/19 12:28:32;;;;;;;5.72;1.33;;;11.20;99.90;;;;;;4995169;28;20470;-56
2023/02/19 12:30:59;;;;;;;3.92;1.10;;;11.20;99.90;;;;;;4995468;28;20046;-62
2023/02/19 12:33:26;;;;;;;3.58;1.10;;;11.10;99.90;;;;;;4997792;28;20047;-60
2023/02/19 12:35:52;;;;;;;2.83;0.70;;;11.10;99.90;;;;;;4998123;28;20046;-61
2023/02/19 12:38:20;;;;;;;2.80;0.85;;;11.10;99.90;;;;;;4998022;28;20042;-62
2023/02/19 12:40:48;;;;;;;3.72;0.90;;;11.20;99.70;;;;;;4998106;28;20079;-60
2023/02/19 12:43:14;;;;;;;6.68;1.50;;;11.20;99.60;;;;;;4997888;28;20377;-61
2023/02/19 12:45:41;;;;;;;2.60;0.70;;;11.30;99.80;;;;;;4998228;28;20070;-60
2023/02/19 12:48:08;;;;;;;2.13;0.80;;;11.30;99.50;;;;;;4997825;28;20074;-61
2023/02/19 12:50:35;;;;;;;5.20;1.13;;;11.30;99.60;;;;;;4998033;28;20444;-63
2023/02/19 12:53:01;;;;;;;4.75;1.20;;;11.40;99.80;;;;;;4997765;28;20178;-61
2023/02/19 12:55:28;;;;;;;5.25;1.00;;;11.50;99.90;;;;;;4997844;28;20050;-61
2023/02/19 12:57:55;;;;;;;5.00;1.00;;;11.50;99.40;;;;;;4997967;28;20042;-59
2023/02/19 13:00:22;;;;;;;3.17;0.80;;;11.50;99.40;;;;;;4997979;28;20058;-62
2023/02/19 13:02:48;;;;;;;5.95;1.30;;;11.60;99.60;;;;;;4997691;28;20096;-59
2023/02/19 13:05:15;;;;;;;2.90;1.00;;;11.70;99.80;;;;;;4997223;28;20121;-58
2023/02/19 13:07:42;;;;;;;2.70;1.02;;;11.70;99.90;;;;;;4997871;28;20121;-60
2023/02/19 13:10:09;;;;;;;3.72;1.27;;;11.60;99.90;;;;;;4997402;28;20768;-59
2023/02/19 13:12:35;;;;;;;3.30;1.05;;;11.60;99.40;;;;;;4997491;28;20080;-57
2023/02/19 13:15:02;;;;;;;6.97;1.13;;;11.60;99.50;;;;;;4996275;28;20047;-59